Time;durP1;ratioP1;P1;durP2;ratioP2;P2;SDS_P1;SDS_P2;PMS_P1;PMS_P2;Temp;Humidity;BMP_temperature;BMP_pressure;BME280_temperature;BME280_humidity;BME280_pressure;Samples;Min_cycle;Max_cycle;Signal;HPM_P1;HPM_P2
2021/11/09 00:02:08;;;;;;;9.18;3.28;;;;;;;7.92;100.00;102265.19;6272688;28;20420;-69
2021/11/09 00:05:12;;;;;;;6.53;2.85;;;;;;;7.89;100.00;102259.09;6272499;28;20045;-68
2021/11/09 00:08:17;;;;;;;3.58;2.50;;;;;;;7.91;100.00;102261.69;6272800;28;20092;-68
2021/11/09 00:11:19;;;;;;;5.07;2.70;;;;;;;7.91;100.00;102271.31;6272827;28;20067;-69
2021/11/09 00:14:22;;;;;;;9.10;3.13;;;;;;;7.92;100.00;102267.78;6272602;28;20050;-69
2021/11/09 00:17:24;;;;;;;6.32;3.20;;;;;;;7.91;100.00;102264.31;6272861;28;20048;-68
2021/11/09 00:20:28;;;;;;;6.35;2.55;;;;;;;7.91;100.00;102259.09;6272712;28;20059;-68
2021/11/09 00:23:29;;;;;;;5.47;3.17;;;;;;;7.92;100.00;102255.56;6272496;28;20489;-69
2021/11/09 00:26:31;;;;;;;7.38;3.35;;;;;;;7.92;100.00;102262.56;6272460;28;20098;-67
2021/11/09 00:29:34;;;;;;;5.90;2.92;;;;;;;7.91;100.00;102256.47;6272320;28;20518;-67
2021/11/09 00:32:37;;;;;;;6.43;3.05;;;;;;;7.93;100.00;102256.44;6271932;28;20136;-67
2021/11/09 00:35:39;;;;;;;7.97;2.95;;;;;;;7.93;100.00;102259.91;6272248;28;20515;-67
2021/11/09 00:38:42;;;;;;;9.43;3.90;;;;;;;7.89;100.00;102255.63;6272012;28;20420;-67
2021/11/09 00:41:43;;;;;;;6.68;3.03;;;;;;;7.88;100.00;102257.38;6272160;28;20052;-67
2021/11/09 00:44:46;;;;;;;9.98;3.20;;;;;;;7.91;100.00;102266.06;6271941;28;20044;-67
2021/11/09 00:47:48;;;;;;;5.93;3.40;;;;;;;7.87;100.00;102263.50;6271978;28;20060;-67
2021/11/09 00:50:50;;;;;;;6.88;3.20;;;;;;;7.93;100.00;102256.44;6272050;28;20052;-67
2021/11/09 00:53:52;;;;;;;5.40;2.97;;;;;;;7.88;100.00;102260.00;6270807;28;20057;-67
2021/11/09 00:56:53;;;;;;;9.50;3.50;;;;;;;7.86;100.00;102261.78;6271986;28;20069;-67
2021/11/09 00:59:56;;;;;;;7.72;3.17;;;;;;;7.85;100.00;102262.66;6271721;28;20067;-67
2021/11/09 01:02:58;;;;;;;5.07;2.90;;;;;;;7.84;100.00;102260.06;6271491;28;20041;-67
2021/11/09 01:06:00;;;;;;;6.00;3.15;;;;;;;7.79;100.00;102257.53;6271270;28;20410;-67
2021/11/09 01:09:03;;;;;;;9.38;3.05;;;;;;;7.78;100.00;102260.19;6271417;28;20412;-67
2021/11/09 01:12:06;;;;;;;7.82;3.42;;;;;;;7.75;100.00;102253.25;6271631;28;20052;-69
2021/11/09 01:15:10;;;;;;;6.45;3.08;;;;;;;7.73;100.00;102251.56;6271121;28;20132;-68
2021/11/09 01:18:11;;;;;;;4.95;2.30;;;;;;;7.66;100.00;102244.69;6271406;28;20060;-69
2021/11/09 01:21:15;;;;;;;6.20;2.80;;;;;;;7.55;100.00;102250.13;6271259;28;20075;-68
2021/11/09 01:24:18;;;;;;;5.35;2.58;;;;;;;7.52;100.00;102258.00;6271150;28;20060;-68
2021/11/09 01:27:19;;;;;;;6.30;2.78;;;;;;;7.49;100.00;102253.66;6271366;28;20056;-68
2021/11/09 01:30:22;;;;;;;5.60;2.78;;;;;;;7.48;100.00;102261.56;6271444;28;20051;-67
2021/11/09 01:33:23;;;;;;;5.18;2.75;;;;;;;7.47;100.00;102263.31;6270676;28;20045;-68
2021/11/09 01:36:25;;;;;;;9.25;2.97;;;;;;;7.44;100.00;102247.66;6271003;28;20420;-68
2021/11/09 01:39:26;;;;;;;5.97;3.05;;;;;;;7.42;100.00;102252.06;6270909;28;20049;-67
2021/11/09 01:42:28;;;;;;;4.82;2.33;;;;;;;7.40;100.00;102247.72;6271242;28;20489;-68
2021/11/09 01:45:32;;;;;;;6.32;3.45;;;;;;;7.40;100.00;102248.59;6270901;28;20049;-68
2021/11/09 01:48:34;;;;;;;4.53;2.55;;;;;;;7.44;100.00;102250.25;6270869;28;20053;-68
2021/11/09 01:51:36;;;;;;;10.20;2.45;;;;;;;7.46;100.00;102245.03;6271137;28;20057;-68
2021/11/09 01:54:38;;;;;;;6.60;2.85;;;;;;;7.47;100.00;102249.38;6270670;28;20045;-68
2021/11/09 01:57:40;;;;;;;5.30;3.10;;;;;;;7.46;100.00;102242.41;6270863;28;20072;-68
2021/11/09 02:00:46;;;;;;;10.30;3.35;;;;;;;7.43;100.00;102248.56;6270881;28;20053;-68
2021/11/09 02:03:49;;;;;;;4.63;2.47;;;;;;;7.38;100.00;102255.59;6272522;28;20044;-68
2021/11/09 02:06:51;;;;;;;7.47;3.38;;;;;;;7.38;100.00;102246.00;6275720;28;20045;-69
2021/11/09 02:09:52;;;;;;;4.40;2.67;;;;;;;7.41;100.00;102257.31;6275896;28;20075;-67
2021/11/09 02:12:55;;;;;;;7.47;3.20;;;;;;;7.39;100.00;102249.47;6275686;28;20492;-67
2021/11/09 02:15:58;;;;;;;5.72;3.00;;;;;;;7.40;100.00;102255.56;6275578;28;20052;-67
2021/11/09 02:19:00;;;;;;;6.63;3.10;;;;;;;7.32;100.00;102256.56;6275287;28;20099;-67
2021/11/09 02:22:03;;;;;;;6.35;3.25;;;;;;;7.31;100.00;102254.84;6275656;28;20053;-69
2021/11/09 02:25:07;;;;;;;7.43;3.00;;;;;;;7.29;100.00;102259.22;6275245;28;20068;-67
2021/11/09 02:28:08;;;;;;;5.20;3.25;;;;;;;7.30;100.00;102263.56;6275479;28;20049;-68
2021/11/09 02:31:10;;;;;;;5.88;3.22;;;;;;;7.33;100.00;102252.22;6275460;28;20045;-68
2021/11/09 02:34:12;;;;;;;7.72;3.95;;;;;;;7.34;100.00;102256.53;6274619;28;20045;-67
2021/11/09 02:37:15;;;;;;;5.18;3.13;;;;;;;7.34;100.00;102253.94;6275064;28;20060;-67
2021/11/09 02:40:16;;;;;;;5.07;3.08;;;;;;;7.36;100.00;102252.16;6275062;28;20053;-67
2021/11/09 02:43:19;;;;;;;7.78;3.88;;;;;;;7.36;100.00;102255.66;6275226;28;20049;-67
2021/11/09 02:46:34;;;;;;;6.57;3.72;;;;;;;7.35;100.00;102259.13;6274511;28;20130;-69
2021/11/09 02:49:49;;;;;;;7.25;3.65;;;;;;;7.37;100.00;102264.34;6275241;28;20620;-67
2021/11/09 02:52:56;;;;;;;5.72;3.28;;;;;;;7.38;100.00;102274.78;6274816;28;20049;-68
2021/11/09 02:56:03;;;;;;;14.43;3.55;;;;;;;7.38;100.00;102280.00;6274808;28;20045;-68
2021/11/09 02:59:17;;;;;;;6.22;3.50;;;;;;;7.41;100.00;102283.47;6274819;28;20053;-67
2021/11/09 03:02:31;;;;;;;7.30;3.25;;;;;;;7.43;100.00;102287.78;6274681;28;20053;-68
2021/11/09 03:05:43;;;;;;;8.02;3.88;;;;;;;7.44;100.00;102286.88;6273981;28;20122;-68
2021/11/09 03:08:49;;;;;;;8.77;3.55;;;;;;;7.46;100.00;102285.13;6274442;28;20053;-68
2021/11/09 03:11:55;;;;;;;4.25;2.70;;;;;;;7.50;100.00;102293.81;6274236;28;20493;-68
2021/11/09 03:14:56;;;;;;;10.10;3.55;;;;;;;7.51;100.00;102298.13;6272870;28;20049;-68
2021/11/09 03:18:01;;;;;;;8.65;3.72;;;;;;;7.53;100.00;102296.34;6273976;28;20472;-68
2021/11/09 03:45:02;;;;;;;7.50;3.50;;;;;;;7.54;100.00;102306.81;6271974;28;20045;-67
2021/11/09 03:48:06;;;;;;;8.55;3.42;;;;;;;7.57;100.00;102300.66;6273539;28;20053;-67
2021/11/09 03:51:08;;;;;;;6.15;2.75;;;;;;;7.58;100.00;102302.38;6273445;28;20056;-69
2021/11/09 03:54:12;;;;;;;7.32;3.40;;;;;;;7.57;100.00;102306.72;6287969;28;20045;-69
2021/11/09 03:57:19;;;;;;;6.65;3.10;;;;;;;7.58;100.00;102308.47;6291371;28;20403;-67
2021/11/09 04:00:29;;;;;;;9.30;3.13;;;;;;;7.59;100.00;102311.97;6289655;28;20071;-66
2021/11/09 04:03:42;;;;;;;7.03;3.08;;;;;;;7.61;100.00;102308.41;6288624;28;20045;-66
2021/11/09 04:06:47;;;;;;;7.10;3.20;;;;;;;7.61;100.00;102310.19;6295754;28;20044;-66
2021/11/09 04:10:00;;;;;;;5.13;3.05;;;;;;;7.61;100.00;102311.03;6292515;28;20095;-69
2021/11/09 04:13:17;;;;;;;5.25;3.08;;;;;;;7.60;100.00;102311.06;6275004;28;20526;-67
2021/11/09 04:16:30;;;;;;;4.90;2.50;;;;;;;7.59;100.00;102309.34;6277882;28;20492;-68
2021/11/09 04:19:41;;;;;;;6.90;2.92;;;;;;;7.58;100.00;102300.59;6272479;28;20060;-69
2021/11/09 04:30:14;;;;;;;8.63;3.53;;;;;;;7.58;100.00;102310.22;6317792;28;20098;-68
2021/11/09 04:53:28;;;;;;;10.25;4.35;;;;;;;7.58;100.00;102318.06;6289285;28;20053;-66
2021/11/09 05:08:16;;;;;;;7.05;3.08;;;;;;;7.58;100.00;102326.78;6292195;28;20048;-66
2021/11/09 05:09:54;;;;;;;;;;;;;;;7.58;100.00;102325.91;6292207;28;20052;-67
2021/11/09 05:12:56;;;;;;;8.73;3.90;;;;;;;7.57;100.00;102332.91;6292020;28;20371;-67
2021/11/09 05:15:58;;;;;;;12.55;4.60;;;;;;;7.59;100.00;102330.28;6291631;28;20147;-67
2021/11/09 05:19:00;;;;;;;8.00;3.47;;;;;;;7.59;100.00;102335.50;6291738;28;20045;-67
2021/11/09 05:22:01;;;;;;;9.85;3.90;;;;;;;7.58;100.00;102339.00;6291628;28;20048;-68
2021/11/09 05:25:03;;;;;;;10.00;4.85;;;;;;;7.61;100.00;102331.09;6290928;28;20045;-67
2021/11/09 05:28:08;;;;;;;13.15;5.13;;;;;;;7.62;100.00;102340.66;6291544;28;20052;-69
2021/11/09 05:31:10;;;;;;;9.60;5.72;;;;;;;7.61;100.00;102339.81;6291269;28;20053;-67
2021/11/09 05:34:12;;;;;;;13.05;5.15;;;;;;;7.62;100.00;102341.53;6310842;28;20514;-68
2021/11/09 05:37:18;;;;;;;6.28;3.33;;;;;;;7.61;100.00;102345.03;6302360;28;20103;-68
2021/11/09 05:40:26;;;;;;;9.90;4.47;;;;;;;7.62;100.00;102351.13;6299723;28;20510;-69
2021/11/09 05:43:28;;;;;;;10.15;4.78;;;;;;;7.65;100.00;102350.25;6299399;28;20052;-68
2021/11/09 05:46:30;;;;;;;10.40;4.72;;;;;;;7.64;100.00;102359.84;6299628;28;20045;-69
2021/11/09 05:49:32;;;;;;;19.83;4.90;;;;;;;7.66;100.00;102362.44;6299302;28;20052;-69
2021/11/09 05:52:34;;;;;;;10.75;4.65;;;;;;;7.64;100.00;102357.22;6299446;28;20133;-69
2021/11/09 05:55:35;;;;;;;12.70;5.65;;;;;;;7.64;100.00;102357.22;6299125;28;20056;-69
2021/11/09 05:58:37;;;;;;;9.05;4.38;;;;;;;7.65;100.00;102361.56;6299241;28;20059;-68
2021/11/09 06:01:40;;;;;;;10.88;5.70;;;;;;;7.62;100.00;102372.94;6299042;28;20068;-69
2021/11/09 06:04:42;;;;;;;10.05;4.93;;;;;;;7.56;100.00;102365.19;6297024;28;20055;-66
2021/11/09 06:07:43;;;;;;;8.40;4.90;;;;;;;7.53;100.00;102372.22;6298967;28;20056;-66
2021/11/09 06:10:45;;;;;;;13.85;4.85;;;;;;;7.48;100.00;102363.56;6298906;28;20048;-68
2021/11/09 06:13:47;;;;;;;12.52;5.60;;;;;;;7.46;100.00;102376.69;6291688;28;20519;-68
2021/11/09 06:16:50;;;;;;;13.32;5.13;;;;;;;7.45;100.00;102381.91;6298168;28;20052;-69
2021/11/09 06:19:51;;;;;;;13.15;5.82;;;;;;;7.39;100.00;102385.47;6281153;28;20049;-67
2021/11/09 06:22:54;;;;;;;12.07;4.72;;;;;;;7.37;100.00;102392.50;6297810;28;20055;-69
2021/11/09 06:25:56;;;;;;;11.93;4.57;;;;;;;7.35;100.00;102396.88;6298325;28;20051;-69
2021/11/09 06:28:59;;;;;;;13.95;5.45;;;;;;;7.30;100.00;102402.16;6298277;28;20119;-67
2021/11/09 06:32:02;;;;;;;11.48;5.20;;;;;;;7.24;100.00;102402.25;6298161;28;20056;-67
2021/11/09 06:35:04;;;;;;;10.20;4.65;;;;;;;7.20;100.00;102404.91;6295911;28;20040;-69
2021/11/09 06:38:05;;;;;;;11.35;4.97;;;;;;;7.18;100.00;102415.41;6297748;28;20070;-67
2021/11/09 06:41:06;;;;;;;14.05;5.20;;;;;;;7.12;100.00;102412.84;6283920;28;20044;-67
2021/11/09 06:44:08;;;;;;;10.95;5.10;;;;;;;7.06;100.00;102415.56;6284086;28;20045;-66
2021/11/09 06:47:11;;;;;;;13.52;5.68;;;;;;;7.02;100.00;102414.72;6282809;28;20048;-67
2021/11/09 06:50:12;;;;;;;19.30;9.27;;;;;;;7.01;100.00;102428.66;6284517;28;20065;-67
2021/11/09 06:53:14;;;;;;;11.75;6.07;;;;;;;6.94;100.00;102428.75;6282609;28;20411;-67
2021/11/09 06:56:15;;;;;;;14.00;6.03;;;;;;;6.90;100.00;102429.66;6277431;28;20052;-67
2021/11/09 06:59:18;;;;;;;9.75;5.13;;;;;;;6.86;100.00;102437.56;6272825;28;20056;-66
2021/11/09 07:02:21;;;;;;;14.82;6.05;;;;;;;6.83;100.00;102432.34;6272977;28;20045;-67
2021/11/09 07:05:23;;;;;;;10.93;4.88;;;;;;;6.82;100.00;102440.22;6272645;28;20041;-66
2021/11/09 07:08:24;;;;;;;9.07;4.57;;;;;;;6.80;100.00;102447.19;6272563;28;20045;-66
2021/11/09 07:11:26;;;;;;;11.40;5.85;;;;;;;6.77;100.00;102448.09;6272636;28;20049;-67
2021/11/09 07:14:27;;;;;;;15.38;4.72;;;;;;;6.73;100.00;102451.63;6280111;28;20052;-67
2021/11/09 07:17:31;;;;;;;13.57;5.32;;;;;;;6.74;100.00;102450.75;6285792;28;20041;-66
2021/11/09 07:20:32;;;;;;;15.50;5.47;;;;;;;6.73;100.00;102451.63;6297191;28;20098;-67
2021/11/09 07:23:33;;;;;;;11.77;5.50;;;;;;;6.75;100.00;102460.31;6296748;28;20056;-66
2021/11/09 07:26:35;;;;;;;12.18;4.90;;;;;;;6.76;100.00;102469.00;6297021;28;20048;-67
2021/11/09 07:29:37;;;;;;;11.57;5.18;;;;;;;6.72;100.00;102467.28;6296784;28;20064;-66
2021/11/09 07:32:40;;;;;;;10.27;4.57;;;;;;;6.75;100.00;102464.66;6288536;28;20134;-67
2021/11/09 07:35:42;;;;;;;12.43;3.90;;;;;;;6.74;100.00;102468.16;6271730;28;20045;-67
2021/11/09 07:38:44;;;;;;;9.65;4.32;;;;;;;6.78;100.00;102473.34;6271773;28;20459;-67
2021/11/09 07:41:45;;;;;;;8.80;4.05;;;;;;;6.79;100.00;102471.59;6271996;28;20041;-66
2021/11/09 07:44:47;;;;;;;13.52;4.43;;;;;;;6.77;100.00;102468.16;6271370;28;20408;-67
2021/11/09 07:47:53;;;;;;;11.40;5.13;;;;;;;6.79;100.00;102463.75;6271591;28;20072;-67
2021/11/09 07:50:55;;;;;;;8.90;3.78;;;;;;;6.79;100.00;102463.75;6271582;28;20053;-67
2021/11/09 07:53:59;;;;;;;13.23;4.38;;;;;;;6.81;100.00;102468.09;6271393;28;20045;-67
2021/11/09 07:57:02;;;;;;;14.15;4.90;;;;;;;6.86;100.00;102462.81;6271324;28;20465;-67
2021/11/09 08:00:10;;;;;;;12.00;4.95;;;;;;;6.94;100.00;102465.34;6271323;28;20071;-67
2021/11/09 08:03:14;;;;;;;12.00;5.43;;;;;;;6.96;100.00;102466.22;6272403;28;20132;-67
2021/11/09 08:06:20;;;;;;;10.52;4.75;;;;;;;6.97;100.00;102463.56;6271263;28;20045;-67
2021/11/09 08:09:26;;;;;;;12.38;5.75;;;;;;;6.99;100.00;102467.00;6271212;28;20146;-67
2021/11/09 08:12:27;;;;;;;7.88;4.30;;;;;;;7.02;100.00;102471.34;6271515;28;20048;-67
2021/11/09 08:15:29;;;;;;;11.65;4.85;;;;;;;7.08;100.00;102474.75;6271016;28;20052;-67
2021/11/09 08:18:31;;;;;;;12.40;5.22;;;;;;;7.10;100.00;102477.38;6271311;28;20049;-67
2021/11/09 08:21:34;;;;;;;10.15;4.38;;;;;;;7.11;100.00;102485.19;6271279;28;20049;-66
2021/11/09 08:24:35;;;;;;;10.98;4.57;;;;;;;7.19;100.00;102487.72;6271750;28;20056;-67
2021/11/09 08:27:37;;;;;;;15.02;5.53;;;;;;;7.19;100.00;102489.47;6281547;28;20052;-67
2021/11/09 08:30:38;;;;;;;8.60;4.78;;;;;;;7.23;100.00;102492.03;6293212;28;20052;-66
2021/11/09 08:33:41;;;;;;;14.85;4.53;;;;;;;7.27;100.00;102485.91;6284688;28;20419;-68
2021/11/09 08:36:44;;;;;;;9.90;4.40;;;;;;;7.34;100.00;102486.69;6285245;28;20499;-69
2021/11/09 08:39:45;;;;;;;15.38;4.72;;;;;;;7.43;100.00;102491.78;6295820;28;20072;-66
2021/11/09 08:42:49;;;;;;;12.55;3.75;;;;;;;7.45;100.00;102486.53;6295770;28;20045;-68
2021/11/09 08:45:54;;;;;;;11.32;4.60;;;;;;;7.50;100.00;102482.13;6295478;28;20047;-67
2021/11/09 08:48:57;;;;;;;12.57;4.72;;;;;;;7.56;100.00;102477.69;6295551;28;20102;-69
2021/11/09 08:51:59;;;;;;;8.55;4.45;;;;;;;7.59;100.00;102480.25;6295633;28;20049;-66
2021/11/09 08:55:14;;;;;;;12.13;4.65;;;;;;;7.69;100.00;102477.53;6295457;28;20045;-66
2021/11/09 08:58:22;;;;;;;18.85;4.93;;;;;;;7.73;100.00;102479.22;6295780;28;20048;-67
2021/11/09 09:04:11;;;;;;;9.60;5.00;;;;;;;7.79;100.00;102479.13;6295548;28;20431;-67
2021/11/09 09:05:08;;;;;;;17.00;5.15;;;;;;;7.83;100.00;102486.91;6293226;28;20075;-66
2021/11/09 09:08:10;;;;;;;7.82;3.95;;;;;;;7.85;100.00;102479.88;6295567;28;20529;-69
2021/11/09 09:11:11;;;;;;;13.18;3.83;;;;;;;7.95;100.00;102485.88;6297005;28;20049;-69
2021/11/09 09:14:13;;;;;;;12.85;3.63;;;;;;;7.98;100.00;102485.81;6299806;28;20048;-68
2021/11/09 09:17:14;;;;;;;11.85;4.88;;;;;;;8.07;100.00;102482.19;6300079;28;20045;-69
2021/11/09 09:20:21;;;;;;;15.88;4.38;;;;;;;8.15;100.00;102496.06;6299982;28;20048;-67
2021/11/09 09:23:26;;;;;;;9.57;4.05;;;;;;;8.22;100.00;102496.81;6299795;28;20139;-69
2021/11/09 09:26:34;;;;;;;7.75;4.65;;;;;;;8.29;100.00;102503.69;6299545;28;20092;-67
2021/11/09 09:29:42;;;;;;;9.50;3.37;;;;;;;8.37;100.00;102496.63;6297057;28;20135;-67
2021/11/09 09:33:04;;;;;;;5.97;3.70;;;;;;;8.44;100.00;102500.84;6298764;28;20514;-67
2021/11/09 09:52:57;;;;;;;5.13;3.28;;;;;;;8.81;100.00;102513.34;6296837;28;20052;-68
2021/11/09 09:56:00;;;;;;;7.85;3.38;;;;;;;8.86;100.00;102507.13;6274426;28;20056;-68
2021/11/09 09:59:01;;;;;;;7.25;3.85;;;;;;;8.97;100.00;102504.31;6273838;28;20072;-68
2021/11/09 10:02:06;;;;;;;6.55;3.95;;;;;;;9.04;100.00;102502.47;6284062;28;20049;-68
2021/11/09 10:05:11;;;;;;;9.63;3.60;;;;;;;9.08;100.00;102507.63;6278890;28;20049;-68
2021/11/09 10:08:18;;;;;;;13.30;4.18;;;;;;;9.10;100.00;102507.59;6274234;28;20389;-68
2021/11/09 10:11:30;;;;;;;12.30;3.45;;;;;;;9.14;100.00;102501.38;6280733;28;20047;-68
2021/11/09 10:14:36;;;;;;;12.85;3.92;;;;;;;9.20;100.00;102503.88;6298621;28;20052;-68
2021/11/09 10:17:40;;;;;;;9.13;3.10;;;;;;;9.27;100.00;102504.63;6298854;28;20047;-68
2021/11/09 10:20:46;;;;;;;5.32;2.60;;;;;;;9.35;100.00;102503.56;6298561;28;20044;-68
2021/11/09 10:23:48;;;;;;;6.43;2.95;;;;;;;9.52;99.91;102492.72;6298209;28;20049;-68
2021/11/09 10:26:50;;;;;;;5.97;2.75;;;;;;;9.62;99.76;102494.25;6298355;28;20415;-68
2021/11/09 10:29:54;;;;;;;5.63;2.28;;;;;;;9.72;99.38;102494.06;6298359;28;20048;-68
2021/11/09 10:32:55;;;;;;;7.90;3.22;;;;;;;9.80;98.23;102495.63;6288253;28;20053;-68
2021/11/09 10:35:57;;;;;;;11.45;3.40;;;;;;;9.85;97.37;102483.25;6273461;28;20041;-68
2021/11/09 10:39:16;;;;;;;6.38;2.95;;;;;;;9.97;94.67;102481.25;6273366;28;20049;-68
2021/11/09 10:42:19;;;;;;;10.47;3.77;;;;;;;9.97;95.85;102476.00;6273342;28;20538;-68
2021/11/09 10:45:23;;;;;;;12.35;3.45;;;;;;;10.14;94.69;102473.84;6272964;28;20052;-69
2021/11/09 10:48:25;;;;;;;14.40;2.83;;;;;;;10.33;92.51;102469.06;6272951;28;20060;-69
2021/11/09 10:51:53;;;;;;;13.63;2.85;;;;;;;10.50;91.51;102474.75;6272975;28;20052;-68
2021/11/09 10:55:02;;;;;;;6.85;3.38;;;;;;;10.64;89.40;102475.25;6272796;28;20057;-69
2021/11/09 10:58:17;;;;;;;7.17;2.67;;;;;;;10.75;87.03;102474.97;6272785;28;20060;-68
2021/11/09 11:04:34;;;;;;;6.30;2.80;;;;;;;11.09;82.84;102472.31;6273697;28;20113;-68
2021/11/09 11:07:51;;;;;;;5.95;2.10;;;;;;;11.21;80.86;102460.56;6280708;28;20052;-67
2021/11/09 11:10:54;;;;;;;11.40;2.40;;;;;;;11.34;83.14;102458.44;6272676;28;20049;-68
2021/11/09 11:14:06;;;;;;;7.45;2.20;;;;;;;11.29;80.23;102452.44;6272252;28;20068;-68
2021/11/09 11:17:11;;;;;;;6.07;1.75;;;;;;;11.43;82.08;102451.13;6278412;28;20044;-69
2021/11/09 11:20:12;;;;;;;2.55;1.80;;;;;;;11.44;80.87;102454.63;6296860;28;20625;-67
2021/11/09 11:23:13;;;;;;;6.43;1.90;;;;;;;11.29;79.44;102461.22;6297219;28;20045;-68
2021/11/09 11:26:18;;;;;;;3.67;1.70;;;;;;;11.14;81.80;102453.75;6296463;28;20048;-68
2021/11/09 11:29:21;;;;;;;3.58;1.85;;;;;;;11.20;80.81;102452.72;6296642;28;20052;-68
2021/11/09 11:32:24;;;;;;;7.65;3.38;;;;;;;11.21;79.30;102441.28;6295502;28;20048;-68
2021/11/09 11:35:26;;;;;;;4.55;1.75;;;;;;;11.34;77.97;102456.66;6272504;28;20052;-68
2021/11/09 11:38:28;;;;;;;6.15;2.38;;;;;;;11.48;75.34;102460.66;6271978;28;20048;-68
2021/11/09 11:41:36;;;;;;;4.38;1.55;;;;;;;11.59;74.25;102455.97;6271885;28;20063;-68
2021/11/09 11:44:41;;;;;;;6.28;1.83;;;;;;;11.65;74.70;102447.88;6271791;28;20049;-68
2021/11/09 11:48:02;;;;;;;3.95;1.58;;;;;;;11.86;73.41;102455.16;6271664;28;20045;-68
2021/11/09 11:51:13;;;;;;;1.85;1.33;;;;;;;11.93;73.46;102447.91;6271704;28;20056;-67
2021/11/09 11:54:17;;;;;;;4.47;1.65;;;;;;;11.98;74.71;102451.25;6292515;28;20135;-68
2021/11/09 11:57:38;;;;;;;5.82;1.80;;;;;;;11.93;71.73;102445.25;6296276;28;20051;-68
2021/11/09 12:00:46;;;;;;;5.95;1.55;;;;;;;11.89;73.87;102439.22;6295801;28;20048;-69
2021/11/09 12:03:48;;;;;;;4.37;2.03;;;;;;;11.92;71.35;102435.66;6289041;28;20048;-69
2021/11/09 12:06:51;;;;;;;5.00;1.40;;;;;;;11.90;69.99;102434.84;6271332;28;20307;-68
2021/11/09 12:10:05;;;;;;;4.78;1.40;;;;;;;11.82;71.83;102431.56;6270372;28;20491;-68
2021/11/09 12:13:10;;;;;;;3.88;1.80;;;;;;;11.80;70.84;102433.34;6281718;28;20041;-69
2021/11/09 12:16:11;;;;;;;9.95;1.40;;;;;;;11.81;69.16;102427.16;6295493;28;20059;-69
2021/11/09 12:19:47;;;;;;;4.97;1.70;;;;;;;11.83;69.39;102426.25;6296175;28;20075;-68
2021/11/09 12:22:51;;;;;;;11.95;1.48;;;;;;;11.89;72.37;102415.50;6263573;28;20167;-68
2021/11/09 12:25:53;;;;;;;5.07;1.52;;;;;;;11.99;72.19;102417.84;6270797;28;20090;-69
2021/11/09 12:28:56;;;;;;;4.05;1.70;;;;;;;12.10;68.90;102413.09;6272292;28;20052;-71
2021/11/09 12:31:57;;;;;;;5.65;1.50;;;;;;;12.05;69.77;102413.25;6296099;28;20055;-71
2021/11/09 12:35:03;;;;;;;2.25;1.23;;;;;;;12.11;70.98;102420.94;6282577;28;20489;-71
2021/11/09 12:38:08;;;;;;;2.78;1.65;;;;;;;12.11;67.86;102412.19;6270974;28;20049;-68
2021/11/09 12:41:11;;;;;;;3.80;1.33;;;;;;;12.06;68.31;102406.22;6270977;28;20422;-68
2021/11/09 12:44:14;;;;;;;8.93;1.60;;;;;;;12.14;67.73;102412.09;6270754;28;20052;-68
2021/11/09 12:47:15;;;;;;;4.28;1.40;;;;;;;12.09;68.87;102401.72;6285954;28;20048;-68
2021/11/09 12:50:17;;;;;;;2.10;0.95;;;;;;;12.10;67.49;102398.16;6300656;28;20427;-68
2021/11/09 12:53:21;;;;;;;5.68;1.83;;;;;;;12.15;68.13;102395.38;6300410;28;20045;-68
2021/11/09 12:56:25;;;;;;;8.90;3.83;;;;;;;12.17;69.38;102401.44;6300453;28;20487;-66
2021/11/09 12:59:33;;;;;;;3.65;1.45;;;;;;;12.19;67.35;102395.22;6300061;28;20048;-68
2021/11/09 13:02:40;;;;;;;5.35;0.93;;;;;;;12.26;68.55;102393.22;6300530;28;20491;-68
2021/11/09 13:05:51;;;;;;;1.02;0.93;;;;;;;12.26;67.39;102405.53;6298358;28;20055;-68
2021/11/09 13:09:03;;;;;;;3.35;1.10;;;;;;;12.26;65.43;102392.34;6300410;28;20106;-67
2021/11/09 13:12:06;;;;;;;2.30;1.42;;;;;;;12.08;67.18;102391.19;6300181;28;20060;-68
2021/11/09 13:15:12;;;;;;;6.95;1.70;;;;;;;11.98;67.12;102392.41;6300025;28;20048;-68
2021/11/09 13:18:14;;;;;;;7.88;1.50;;;;;;;11.93;67.64;102392.56;6299453;28;20055;-69
2021/11/09 13:21:24;;;;;;;2.40;1.30;;;;;;;11.81;69.00;102388.53;6299985;28;20048;-69
2021/11/09 13:24:26;;;;;;;2.30;1.48;;;;;;;11.74;67.79;102384.38;6299504;28;20049;-69
2021/11/09 13:27:36;;;;;;;4.25;1.48;;;;;;;11.76;69.30;102384.31;6299930;28;20045;-68
2021/11/09 13:30:41;;;;;;;5.45;1.10;;;;;;;11.74;68.64;102380.88;6299857;28;20056;-68
2021/11/09 13:33:48;;;;;;;2.63;1.38;;;;;;;11.65;67.80;102388.16;6299412;28;20045;-68
2021/11/09 13:36:55;;;;;;;4.07;1.00;;;;;;;11.62;69.77;102382.13;6297898;28;20056;-68
2021/11/09 13:40:03;;;;;;;3.75;1.02;;;;;;;11.57;68.59;102378.78;6299748;28;20076;-68
2021/11/09 13:43:07;;;;;;;2.90;1.42;;;;;;;11.54;68.87;102376.25;6299461;28;20139;-68
2021/11/09 13:46:12;;;;;;;2.00;1.13;;;;;;;11.54;68.31;102373.63;6296020;28;20040;-68
2021/11/09 13:49:15;;;;;;;3.42;1.67;;;;;;;11.51;69.11;102374.56;6290212;28;20075;-68
2021/11/09 13:52:16;;;;;;;2.75;1.65;;;;;;;11.45;68.92;102372.13;6279214;28;20060;-68
2021/11/09 13:55:20;;;;;;;1.98;1.13;;;;;;;11.46;69.59;102376.47;6283973;28;20515;-68
2021/11/09 13:58:22;;;;;;;8.10;1.55;;;;;;;11.43;69.91;102374.78;6292870;28;20562;-68
2021/11/09 14:01:45;;;;;;;6.22;1.58;;;;;;;11.36;67.93;102368.00;6272671;28;20052;-68
2021/11/09 14:05:14;;;;;;;3.25;1.35;;;;;;;11.36;69.91;102365.38;6268753;28;20049;-67
2021/11/09 14:12:16;;;;;;;3.47;1.10;;;;;;;11.29;68.50;102363.81;6219293;28;20069;-67
2021/11/09 14:18:50;;;;;;;3.83;0.90;;;;;;;11.15;71.24;102358.97;6246705;28;20041;-66
2021/11/09 14:21:51;;;;;;;3.00;1.40;;;;;;;11.17;71.75;102365.06;6251213;28;20544;-67
2021/11/09 14:24:57;;;;;;;1.70;1.02;;;;;;;11.10;71.74;102365.28;6248183;28;20046;-67
2021/11/09 14:27:58;;;;;;;4.05;1.20;;;;;;;11.03;72.85;102363.75;6248870;28;20432;-67
2021/11/09 14:31:11;;;;;;;3.15;0.88;;;;;;;10.92;75.43;102364.91;6248762;28;20053;-68
2021/11/09 14:34:17;;;;;;;1.50;0.90;;;;;;;10.90;74.33;102371.13;6248236;28;20060;-68
2021/11/09 14:37:19;;;;;;;2.78;1.20;;;;;;;10.85;74.94;102365.13;6249586;28;20132;-68
2021/11/09 14:40:29;;;;;;;1.75;1.10;;;;;;;10.81;78.30;102372.28;6248808;28;20050;-67
2021/11/09 14:43:37;;;;;;;1.60;1.08;;;;;;;10.75;77.22;102367.16;6247889;28;20061;-67
2021/11/09 14:46:40;;;;;;;4.97;0.85;;;;;;;10.71;77.89;102370.78;6248444;28;20057;-68
2021/11/09 14:49:54;;;;;;;2.45;1.20;;;;;;;10.62;80.85;102363.16;6247400;28;20053;-68
2021/11/09 14:53:12;;;;;;;3.22;1.40;;;;;;;10.47;82.42;102361.81;6247713;28;20046;-71
2021/11/09 14:56:18;;;;;;;1.30;1.13;;;;;;;10.40;82.42;102360.22;6247792;28;20393;-68
2021/11/09 14:59:19;;;;;;;3.58;1.70;;;;;;;10.44;81.81;102348.72;6247254;28;20076;-68
2021/11/09 15:02:23;;;;;;;4.40;1.17;;;;;;;10.33;84.92;102346.41;6248123;28;20444;-68
2021/11/09 15:05:26;;;;;;;3.20;1.00;;;;;;;10.25;84.84;102343.13;6247182;28;20203;-68
2021/11/09 15:08:32;;;;;;;5.20;1.65;;;;;;;10.14;85.09;102339.88;6269698;28;20052;-68
2021/11/09 15:11:41;;;;;;;3.90;1.30;;;;;;;10.05;86.04;102345.38;6272792;28;20055;-68
2021/11/09 15:28:11;;;;;;;2.33;1.23;;;;;;;9.57;93.00;102340.41;6272350;28;20077;-68
2021/11/09 15:31:21;;;;;;;1.75;0.95;;;;;;;9.48;93.71;102338.00;6272411;28;20455;-67
2021/11/09 15:34:34;;;;;;;2.45;1.60;;;;;;;9.36;93.17;102336.53;6271573;28;20118;-68
2021/11/09 15:37:38;;;;;;;4.15;2.33;;;;;;;9.29;94.53;102330.56;6270476;28;20100;-67
2021/11/09 15:40:39;;;;;;;2.90;1.50;;;;;;;9.20;94.94;102336.00;6271680;28;20048;-67
2021/11/09 15:43:41;;;;;;;1.65;1.10;;;;;;;9.13;95.54;102337.91;6271452;28;20056;-67
2021/11/09 15:46:43;;;;;;;6.75;2.10;;;;;;;9.07;96.56;102337.16;6271817;28;20085;-67
2021/11/09 15:49:44;;;;;;;7.43;4.38;;;;;;;9.02;97.09;102339.03;6271732;28;20048;-67
2021/11/09 15:52:47;;;;;;;9.20;4.32;;;;;;;8.99;96.19;102341.69;6271906;28;20090;-67
2021/11/09 15:55:49;;;;;;;8.90;2.53;;;;;;;8.93;97.15;102349.72;6271045;28;20053;-67
2021/11/09 15:58:50;;;;;;;4.32;1.88;;;;;;;8.84;97.75;102354.22;6271704;28;20053;-67
2021/11/09 16:01:52;;;;;;;2.42;1.15;;;;;;;8.75;98.45;102345.69;6270579;28;20048;-67